This is the latest recevied weather packets stored in our database for station/object KM4CBK. If no packets are shown the sender has not sent any weather packets the latest 1 day(s).
| Time | Temp. | Humidity | Pressure | Rain* | Wind** | Luminosity | Snow |
|---|---|---|---|---|---|---|---|
| 1778088742 | 25° C | 86% | 1014 hPa | 0 mm | - | 202 W/m² | - |
| 1778088439 | 25° C | 86% | 1014 hPa | 0 mm | - | 158 W/m² | - |
| 1778087228 | 23.89° C | 88% | 1013.9 hPa | 0 mm | - | 143 W/m² | - |
| 1778086623 | 23.89° C | 88% | 1013.8 hPa | 0 mm | - | 119 W/m² | - |
| 1778084499 | 23.89° C | 88% | 1014.6 hPa | 0 mm | - | 99 W/m² | - |
| 1778084196 | 23.89° C | 87% | 1014.4 hPa | 0 mm | - | 102 W/m² | - |
| 1778083893 | 24.44° C | 86% | 1014.4 hPa | 0 mm | - | 76 W/m² | - |
| 1778083287 | 24.44° C | 84% | 1014.3 hPa | 0 mm | - | 152 W/m² | - |
| 1778081545 | 24.44° C | 86% | 1014.3 hPa | 0 mm | - | 115 W/m² | - |
| 1778080939 | 25° C | 85% | 1014.4 hPa | 0 mm | - | 221 W/m² | - |
| 1778080334 | 23.89° C | 86% | 1014.5 hPa | 0 mm | - | 247 W/m² | - |
| 1778079121 | 23.89° C | 86% | 1014.8 hPa | 0 mm | - | 187 W/m² | - |
| 1778078819 | 23.89° C | 86% | 1014.6 hPa | 0 mm | - | 218 W/m² | - |
| 1778077911 | 23.33° C | 88% | 1014.6 hPa | 0 mm | - | 188 W/m² | - |
| 1778074882 | 21.67° C | 90% | 1014.4 hPa | 0 mm | - | 104 W/m² | - |
| 1778073974 | 21.11° C | 93% | 1014.6 hPa | 0 mm | - | 133 W/m² | - |
| 1778072459 | 20.56° C | 95% | 1014.3 hPa | 0 mm | - | 89 W/m² | - |
| 1778071552 | 20.56° C | 96% | 1014.3 hPa | 0 mm | - | 24 W/m² | - |
| 1778069737 | 20° C | 98% | 1013.7 hPa | 0 mm | - | 44 W/m² | - |
| 1778069433 | 20° C | 98% | 1013 hPa | 0 mm | - | 50 W/m² | - |
| 1778068526 | 19.44° C | 99% | 1013.3 hPa | 0 mm | - | 27 W/m² | - |
| 1778067620 | 19.44° C | 99% | 1013.1 hPa | 0 mm | - | 17 W/m² | - |
| 1778066711 | 18.89° C | 99% | 1012.8 hPa | 0 mm | - | 12 W/m² | - |
| 1778066107 | 18.89° C | 99% | 1012.8 hPa | 0 mm | - | 5 W/m² | - |
| 1778065501 | 18.89° C | 99% | 1012.5 hPa | 0 mm | - | 2 W/m² | - |
* Rain latest hour (hover to see other rain measurements)
** Current wind speed in m/s (hover to see current wind gust speed)